sensor_id;sensor_type;location;lat;lon;timestamp;P1;durP1;ratioP1;P2;durP2;ratioP2
65275;SDS011;51875;49.994;14.052;2023-02-28T00:00:25;12.55;;;5.25;;
65275;SDS011;51875;49.994;14.052;2023-02-28T00:02:00;10.65;;;4.88;;
65275;SDS011;51875;49.994;14.052;2023-02-28T00:03:16;10.95;;;5.55;;
65275;SDS011;51875;49.994;14.052;2023-02-28T00:04:32;11.35;;;5.32;;
65275;SDS011;51875;49.994;14.052;2023-02-28T00:05:47;9.00;;;5.13;;
65275;SDS011;51875;49.994;14.052;2023-02-28T00:07:03;11.18;;;5.57;;
65275;SDS011;51875;49.994;14.052;2023-02-28T00:08:19;11.00;;;5.35;;
65275;SDS011;51875;49.994;14.052;2023-02-28T00:09:34;12.07;;;5.38;;
65275;SDS011;51875;49.994;14.052;2023-02-28T00:10:50;10.70;;;5.40;;
65275;SDS011;51875;49.994;14.052;2023-02-28T00:12:05;14.68;;;6.75;;
65275;SDS011;51875;49.994;14.052;2023-02-28T00:13:25;14.70;;;6.50;;
65275;SDS011;51875;49.994;14.052;2023-02-28T00:14:40;10.73;;;5.38;;
65275;SDS011;51875;49.994;14.052;2023-02-28T00:16:04;12.38;;;6.32;;
65275;SDS011;51875;49.994;14.052;2023-02-28T00:17:31;14.57;;;5.50;;
65275;SDS011;51875;49.994;14.052;2023-02-28T00:18:46;14.80;;;6.30;;
65275;SDS011;51875;49.994;14.052;2023-02-28T00:20:02;14.75;;;6.30;;
65275;SDS011;51875;49.994;14.052;2023-02-28T00:21:20;16.05;;;7.05;;
65275;SDS011;51875;49.994;14.052;2023-02-28T00:22:36;13.32;;;6.30;;
65275;SDS011;51875;49.994;14.052;2023-02-28T00:23:52;16.23;;;7.38;;
65275;SDS011;51875;49.994;14.052;2023-02-28T00:25:08;12.95;;;6.07;;
65275;SDS011;51875;49.994;14.052;2023-02-28T00:26:25;12.75;;;6.43;;
65275;SDS011;51875;49.994;14.052;2023-02-28T00:27:41;15.85;;;6.97;;
65275;SDS011;51875;49.994;14.052;2023-02-28T00:28:57;14.88;;;7.47;;
65275;SDS011;51875;49.994;14.052;2023-02-28T00:30:14;13.40;;;7.43;;
65275;SDS011;51875;49.994;14.052;2023-02-28T00:31:31;16.05;;;6.70;;
65275;SDS011;51875;49.994;14.052;2023-02-28T00:32:47;11.70;;;6.95;;
65275;SDS011;51875;49.994;14.052;2023-02-28T00:34:03;11.70;;;6.50;;
65275;SDS011;51875;49.994;14.052;2023-02-28T00:35:19;9.52;;;5.85;;
65275;SDS011;51875;49.994;14.052;2023-02-28T00:36:34;13.90;;;6.38;;
65275;SDS011;51875;49.994;14.052;2023-02-28T00:37:50;12.98;;;5.65;;
65275;SDS011;51875;49.994;14.052;2023-02-28T00:39:05;11.75;;;5.70;;
65275;SDS011;51875;49.994;14.052;2023-02-28T00:40:21;10.52;;;5.47;;
65275;SDS011;51875;49.994;14.052;2023-02-28T00:41:37;11.00;;;5.32;;
65275;SDS011;51875;49.994;14.052;2023-02-28T00:42:52;11.07;;;5.00;;
65275;SDS011;51875;49.994;14.052;2023-02-28T00:44:08;12.52;;;6.15;;
65275;SDS011;51875;49.994;14.052;2023-02-28T00:45:24;9.13;;;5.07;;
65275;SDS011;51875;49.994;14.052;2023-02-28T00:46:40;10.80;;;5.72;;
65275;SDS011;51875;49.994;14.052;2023-02-28T00:47:55;11.23;;;5.13;;
65275;SDS011;51875;49.994;14.052;2023-02-28T00:49:11;10.82;;;5.32;;
65275;SDS011;51875;49.994;14.052;2023-02-28T00:50:27;11.73;;;5.70;;
65275;SDS011;51875;49.994;14.052;2023-02-28T00:51:43;10.80;;;5.15;;
65275;SDS011;51875;49.994;14.052;2023-02-28T00:52:58;10.90;;;5.63;;
65275;SDS011;51875;49.994;14.052;2023-02-28T00:54:14;10.48;;;5.13;;
65275;SDS011;51875;49.994;14.052;2023-02-28T00:55:30;12.52;;;6.00;;
65275;SDS011;51875;49.994;14.052;2023-02-28T00:56:46;10.35;;;5.82;;
65275;SDS011;51875;49.994;14.052;2023-02-28T00:58:02;11.35;;;6.45;;
65275;SDS011;51875;49.994;14.052;2023-02-28T00:59:17;12.25;;;5.47;;
65275;SDS011;51875;49.994;14.052;2023-02-28T01:00:33;12.45;;;6.10;;
65275;SDS011;51875;49.994;14.052;2023-02-28T01:01:49;13.27;;;5.90;;
65275;SDS011;51875;49.994;14.052;2023-02-28T01:03:05;11.75;;;5.47;;
65275;SDS011;51875;49.994;14.052;2023-02-28T01:04:20;12.32;;;5.90;;
65275;SDS011;51875;49.994;14.052;2023-02-28T01:05:36;11.07;;;5.45;;
65275;SDS011;51875;49.994;14.052;2023-02-28T01:06:52;12.18;;;5.82;;
65275;SDS011;51875;49.994;14.052;2023-02-28T01:08:07;12.73;;;5.18;;
65275;SDS011;51875;49.994;14.052;2023-02-28T01:09:23;14.23;;;6.63;;
65275;SDS011;51875;49.994;14.052;2023-02-28T01:10:39;12.48;;;6.07;;
65275;SDS011;51875;49.994;14.052;2023-02-28T01:11:54;11.07;;;6.07;;
65275;SDS011;51875;49.994;14.052;2023-02-28T01:13:10;9.88;;;5.68;;
65275;SDS011;51875;49.994;14.052;2023-02-28T01:14:26;10.40;;;5.70;;
65275;SDS011;51875;49.994;14.052;2023-02-28T01:15:49;11.25;;;5.50;;
65275;SDS011;51875;49.994;14.052;2023-02-28T01:17:07;15.57;;;5.78;;
65275;SDS011;51875;49.994;14.052;2023-02-28T01:18:23;15.10;;;6.85;;
65275;SDS011;51875;49.994;14.052;2023-02-28T01:19:39;13.77;;;6.50;;
65275;SDS011;51875;49.994;14.052;2023-02-28T01:20:55;12.13;;;6.63;;
65275;SDS011;51875;49.994;14.052;2023-02-28T01:22:11;14.77;;;7.00;;
65275;SDS011;51875;49.994;14.052;2023-02-28T01:23:26;12.18;;;6.72;;
65275;SDS011;51875;49.994;14.052;2023-02-28T01:24:42;13.70;;;6.53;;
65275;SDS011;51875;49.994;14.052;2023-02-28T01:26:03;15.38;;;6.93;;
65275;SDS011;51875;49.994;14.052;2023-02-28T01:27:23;12.73;;;6.40;;
65275;SDS011;51875;49.994;14.052;2023-02-28T01:28:39;14.82;;;6.80;;
65275;SDS011;51875;49.994;14.052;2023-02-28T01:29:55;14.57;;;6.95;;
65275;SDS011;51875;49.994;14.052;2023-02-28T01:31:10;14.30;;;6.25;;
65275;SDS011;51875;49.994;14.052;2023-02-28T01:32:26;13.40;;;6.53;;
65275;SDS011;51875;49.994;14.052;2023-02-28T01:33:42;14.50;;;6.25;;
65275;SDS011;51875;49.994;14.052;2023-02-28T01:34:58;13.38;;;6.05;;
65275;SDS011;51875;49.994;14.052;2023-02-28T01:36:14;14.52;;;6.90;;
65275;SDS011;51875;49.994;14.052;2023-02-28T01:37:34;14.70;;;6.45;;
65275;SDS011;51875;49.994;14.052;2023-02-28T01:38:50;14.27;;;6.20;;
65275;SDS011;51875;49.994;14.052;2023-02-28T01:40:06;12.90;;;6.15;;
65275;SDS011;51875;49.994;14.052;2023-02-28T01:41:23;11.35;;;5.97;;
65275;SDS011;51875;49.994;14.052;2023-02-28T01:42:41;11.98;;;6.18;;
65275;SDS011;51875;49.994;14.052;2023-02-28T01:44:04;12.13;;;6.50;;
65275;SDS011;51875;49.994;14.052;2023-02-28T01:45:28;11.38;;;5.93;;
65275;SDS011;51875;49.994;14.052;2023-02-28T01:46:44;13.02;;;5.88;;
65275;SDS011;51875;49.994;14.052;2023-02-28T01:48:04;15.88;;;7.22;;
65275;SDS011;51875;49.994;14.052;2023-02-28T01:49:22;11.20;;;6.00;;
65275;SDS011;51875;49.994;14.052;2023-02-28T01:50:39;11.23;;;6.20;;
65275;SDS011;51875;49.994;14.052;2023-02-28T01:51:57;13.52;;;6.43;;
65275;SDS011;51875;49.994;14.052;2023-02-28T01:53:16;12.52;;;6.32;;
65275;SDS011;51875;49.994;14.052;2023-02-28T01:54:34;10.27;;;5.30;;
65275;SDS011;51875;49.994;14.052;2023-02-28T01:55:50;13.73;;;6.18;;
65275;SDS011;51875;49.994;14.052;2023-02-28T01:57:09;12.30;;;6.22;;
65275;SDS011;51875;49.994;14.052;2023-02-28T01:58:31;12.98;;;6.15;;
65275;SDS011;51875;49.994;14.052;2023-02-28T01:59:51;13.43;;;6.53;;
65275;SDS011;51875;49.994;14.052;2023-02-28T02:01:16;11.80;;;6.05;;
65275;SDS011;51875;49.994;14.052;2023-02-28T02:02:36;10.05;;;5.30;;
65275;SDS011;51875;49.994;14.052;2023-02-28T02:03:53;11.18;;;5.82;;
65275;SDS011;51875;49.994;14.052;2023-02-28T02:05:13;15.65;;;6.53;;
65275;SDS011;51875;49.994;14.052;2023-02-28T02:06:35;12.25;;;5.70;;
65275;SDS011;51875;49.994;14.052;2023-02-28T02:07:55;10.95;;;5.70;;
65275;SDS011;51875;49.994;14.052;2023-02-28T02:09:16;9.95;;;5.63;;
65275;SDS011;51875;49.994;14.052;2023-02-28T02:10:42;20.13;;;7.38;;
65275;SDS011;51875;49.994;14.052;2023-02-28T02:12:07;14.48;;;6.28;;
65275;SDS011;51875;49.994;14.052;2023-02-28T02:13:55;12.73;;;6.25;;
65275;SDS011;51875;49.994;14.052;2023-02-28T02:15:25;10.38;;;5.50;;
65275;SDS011;51875;49.994;14.052;2023-02-28T02:18:36;14.18;;;6.00;;
65275;SDS011;51875;49.994;14.052;2023-02-28T02:23:33;16.45;;;6.43;;
65275;SDS011;51875;49.994;14.052;2023-02-28T02:26:44;12.00;;;6.32;;
65275;SDS011;51875;49.994;14.052;2023-02-28T02:29:40;13.15;;;6.20;;
65275;SDS011;51875;49.994;14.052;2023-02-28T02:31:28;12.43;;;6.63;;
65275;SDS011;51875;49.994;14.052;2023-02-28T02:33:12;12.43;;;5.55;;
65275;SDS011;51875;49.994;14.052;2023-02-28T02:36:19;11.15;;;5.43;;
65275;SDS011;51875;49.994;14.052;2023-02-28T02:37:42;17.05;;;6.43;;
65275;SDS011;51875;49.994;14.052;2023-02-28T02:39:06;12.43;;;6.00;;
65275;SDS011;51875;49.994;14.052;2023-02-28T02:40:43;12.75;;;6.35;;
65275;SDS011;51875;49.994;14.052;2023-02-28T02:42:18;12.93;;;6.47;;
65275;SDS011;51875;49.994;14.052;2023-02-28T02:43:56;12.98;;;6.43;;
65275;SDS011;51875;49.994;14.052;2023-02-28T02:47:00;14.18;;;6.05;;
65275;SDS011;51875;49.994;14.052;2023-02-28T02:48:24;13.63;;;6.00;;
65275;SDS011;51875;49.994;14.052;2023-02-28T02:49:43;13.70;;;6.50;;
65275;SDS011;51875;49.994;14.052;2023-02-28T02:51:06;14.52;;;5.28;;
65275;SDS011;51875;49.994;14.052;2023-02-28T02:52:31;12.38;;;6.35;;
65275;SDS011;51875;49.994;14.052;2023-02-28T02:53:54;12.57;;;5.82;;
65275;SDS011;51875;49.994;14.052;2023-02-28T02:55:16;11.98;;;6.18;;
65275;SDS011;51875;49.994;14.052;2023-02-28T02:56:33;12.15;;;6.18;;
65275;SDS011;51875;49.994;14.052;2023-02-28T02:57:54;15.15;;;7.10;;
65275;SDS011;51875;49.994;14.052;2023-02-28T02:59:17;10.80;;;6.25;;
65275;SDS011;51875;49.994;14.052;2023-02-28T03:00:37;11.77;;;6.13;;
65275;SDS011;51875;49.994;14.052;2023-02-28T03:02:03;12.65;;;5.78;;
65275;SDS011;51875;49.994;14.052;2023-02-28T03:03:23;16.52;;;6.93;;
65275;SDS011;51875;49.994;14.052;2023-02-28T03:04:55;13.85;;;6.15;;
65275;SDS011;51875;49.994;14.052;2023-02-28T03:06:15;11.57;;;6.03;;
65275;SDS011;51875;49.994;14.052;2023-02-28T03:07:31;13.77;;;6.22;;
65275;SDS011;51875;49.994;14.052;2023-02-28T03:08:47;12.90;;;6.75;;
65275;SDS011;51875;49.994;14.052;2023-02-28T03:10:02;13.10;;;6.72;;
65275;SDS011;51875;49.994;14.052;2023-02-28T03:11:18;15.77;;;6.53;;
65275;SDS011;51875;49.994;14.052;2023-02-28T03:12:40;14.02;;;6.18;;
65275;SDS011;51875;49.994;14.052;2023-02-28T03:14:07;11.85;;;6.05;;
65275;SDS011;51875;49.994;14.052;2023-02-28T03:17:17;13.73;;;5.90;;
65275;SDS011;51875;49.994;14.052;2023-02-28T03:18:54;13.98;;;6.10;;
65275;SDS011;51875;49.994;14.052;2023-02-28T03:21:06;11.32;;;5.97;;
65275;SDS011;51875;49.994;14.052;2023-02-28T03:24:02;11.32;;;5.53;;
65275;SDS011;51875;49.994;14.052;2023-02-28T03:25:41;11.45;;;5.60;;
65275;SDS011;51875;49.994;14.052;2023-02-28T03:27:10;14.15;;;5.40;;
65275;SDS011;51875;49.994;14.052;2023-02-28T03:28:35;12.02;;;5.30;;
65275;SDS011;51875;49.994;14.052;2023-02-28T03:32:58;10.93;;;5.22;;
65275;SDS011;51875;49.994;14.052;2023-02-28T03:35:39;11.77;;;6.05;;
65275;SDS011;51875;49.994;14.052;2023-02-28T03:37:02;13.40;;;6.15;;
65275;SDS011;51875;49.994;14.052;2023-02-28T03:39:59;13.38;;;5.07;;
65275;SDS011;51875;49.994;14.052;2023-02-28T03:41:23;9.25;;;5.10;;
65275;SDS011;51875;49.994;14.052;2023-02-28T03:42:43;17.95;;;6.30;;
65275;SDS011;51875;49.994;14.052;2023-02-28T03:44:05;14.75;;;5.70;;
65275;SDS011;51875;49.994;14.052;2023-02-28T03:45:26;14.05;;;5.55;;
65275;SDS011;51875;49.994;14.052;2023-02-28T03:46:51;11.90;;;5.82;;
65275;SDS011;51875;49.994;14.052;2023-02-28T03:48:15;14.27;;;5.72;;
65275;SDS011;51875;49.994;14.052;2023-02-28T03:49:38;10.32;;;5.15;;
65275;SDS011;51875;49.994;14.052;2023-02-28T03:50:58;14.77;;;5.70;;
65275;SDS011;51875;49.994;14.052;2023-02-28T03:52:17;9.23;;;4.80;;
65275;SDS011;51875;49.994;14.052;2023-02-28T03:53:37;11.52;;;5.18;;
65275;SDS011;51875;49.994;14.052;2023-02-28T03:54:59;12.70;;;4.82;;
65275;SDS011;51875;49.994;14.052;2023-02-28T03:56:26;15.10;;;5.60;;
65275;SDS011;51875;49.994;14.052;2023-02-28T03:59:26;11.45;;;5.40;;
65275;SDS011;51875;49.994;14.052;2023-02-28T04:00:49;12.20;;;5.22;;
65275;SDS011;51875;49.994;14.052;2023-02-28T04:02:10;9.82;;;4.78;;
65275;SDS011;51875;49.994;14.052;2023-02-28T04:03:26;9.98;;;5.18;;
65275;SDS011;51875;49.994;14.052;2023-02-28T04:04:42;12.77;;;5.57;;
65275;SDS011;51875;49.994;14.052;2023-02-28T04:06:04;12.05;;;5.07;;
65275;SDS011;51875;49.994;14.052;2023-02-28T04:07:22;13.00;;;5.35;;
65275;SDS011;51875;49.994;14.052;2023-02-28T04:08:37;11.43;;;5.57;;
65275;SDS011;51875;49.994;14.052;2023-02-28T04:09:53;10.15;;;5.10;;
65275;SDS011;51875;49.994;14.052;2023-02-28T04:12:39;10.77;;;5.13;;
65275;SDS011;51875;49.994;14.052;2023-02-28T04:13:54;11.15;;;5.47;;
65275;SDS011;51875;49.994;14.052;2023-02-28T04:15:11;8.85;;;4.53;;
65275;SDS011;51875;49.994;14.052;2023-02-28T04:16:26;13.05;;;5.32;;
65275;SDS011;51875;49.994;14.052;2023-02-28T04:17:42;10.13;;;5.30;;
65275;SDS011;51875;49.994;14.052;2023-02-28T04:18:58;11.35;;;5.43;;
65275;SDS011;51875;49.994;14.052;2023-02-28T04:20:17;12.85;;;5.43;;
65275;SDS011;51875;49.994;14.052;2023-02-28T04:22:50;12.82;;;6.05;;
65275;SDS011;51875;49.994;14.052;2023-02-28T04:24:07;14.60;;;6.32;;
65275;SDS011;51875;49.994;14.052;2023-02-28T04:25:29;12.88;;;5.80;;
65275;SDS011;51875;49.994;14.052;2023-02-28T04:26:45;12.43;;;5.40;;
65275;SDS011;51875;49.994;14.052;2023-02-28T04:28:02;11.13;;;5.00;;
65275;SDS011;51875;49.994;14.052;2023-02-28T04:29:22;12.70;;;5.10;;
65275;SDS011;51875;49.994;14.052;2023-02-28T04:30:39;14.50;;;5.68;;
65275;SDS011;51875;49.994;14.052;2023-02-28T04:31:55;9.98;;;4.88;;
65275;SDS011;51875;49.994;14.052;2023-02-28T04:33:14;11.23;;;5.57;;
65275;SDS011;51875;49.994;14.052;2023-02-28T04:34:30;12.63;;;5.78;;
65275;SDS011;51875;49.994;14.052;2023-02-28T04:35:47;11.85;;;5.30;;
65275;SDS011;51875;49.994;14.052;2023-02-28T04:37:02;12.05;;;4.68;;
65275;SDS011;51875;49.994;14.052;2023-02-28T04:38:18;10.52;;;4.90;;
65275;SDS011;51875;49.994;14.052;2023-02-28T04:39:35;13.48;;;5.88;;
65275;SDS011;51875;49.994;14.052;2023-02-28T04:40:51;14.85;;;5.30;;
65275;SDS011;51875;49.994;14.052;2023-02-28T04:42:07;11.90;;;5.30;;
65275;SDS011;51875;49.994;14.052;2023-02-28T04:43:22;10.07;;;4.80;;
65275;SDS011;51875;49.994;14.052;2023-02-28T04:44:38;13.43;;;5.50;;
65275;SDS011;51875;49.994;14.052;2023-02-28T04:45:54;13.00;;;5.45;;
65275;SDS011;51875;49.994;14.052;2023-02-28T04:47:11;11.73;;;5.32;;
65275;SDS011;51875;49.994;14.052;2023-02-28T04:48:28;12.77;;;5.00;;
65275;SDS011;51875;49.994;14.052;2023-02-28T04:49:44;11.52;;;5.13;;
65275;SDS011;51875;49.994;14.052;2023-02-28T04:51:01;10.85;;;4.88;;
65275;SDS011;51875;49.994;14.052;2023-02-28T04:52:18;10.20;;;4.95;;
65275;SDS011;51875;49.994;14.052;2023-02-28T04:53:34;11.57;;;5.05;;
65275;SDS011;51875;49.994;14.052;2023-02-28T04:54:52;12.63;;;5.65;;
65275;SDS011;51875;49.994;14.052;2023-02-28T04:56:09;11.52;;;4.85;;
65275;SDS011;51875;49.994;14.052;2023-02-28T04:57:30;14.38;;;5.25;;
65275;SDS011;51875;49.994;14.052;2023-02-28T04:58:46;11.88;;;5.38;;
65275;SDS011;51875;49.994;14.052;2023-02-28T05:00:02;10.25;;;4.50;;
65275;SDS011;51875;49.994;14.052;2023-02-28T05:01:25;8.77;;;4.70;;
65275;SDS011;51875;49.994;14.052;2023-02-28T05:02:42;10.57;;;5.50;;
65275;SDS011;51875;49.994;14.052;2023-02-28T05:03:59;13.80;;;5.05;;
65275;SDS011;51875;49.994;14.052;2023-02-28T05:05:17;11.05;;;4.85;;
65275;SDS011;51875;49.994;14.052;2023-02-28T05:06:34;11.88;;;5.28;;
65275;SDS011;51875;49.994;14.052;2023-02-28T05:07:49;11.13;;;5.55;;
65275;SDS011;51875;49.994;14.052;2023-02-28T05:09:05;11.95;;;6.38;;
65275;SDS011;51875;49.994;14.052;2023-02-28T05:10:21;12.30;;;5.22;;
65275;SDS011;51875;49.994;14.052;2023-02-28T05:11:37;10.82;;;5.13;;
65275;SDS011;51875;49.994;14.052;2023-02-28T05:12:54;12.52;;;5.38;;
65275;SDS011;51875;49.994;14.052;2023-02-28T05:14:11;16.52;;;5.82;;
65275;SDS011;51875;49.994;14.052;2023-02-28T05:15:28;11.85;;;5.28;;
65275;SDS011;51875;49.994;14.052;2023-02-28T05:16:43;11.65;;;5.07;;
65275;SDS011;51875;49.994;14.052;2023-02-28T05:17:59;10.95;;;5.53;;
65275;SDS011;51875;49.994;14.052;2023-02-28T05:19:15;15.30;;;6.32;;
65275;SDS011;51875;49.994;14.052;2023-02-28T05:20:30;11.93;;;5.78;;
65275;SDS011;51875;49.994;14.052;2023-02-28T05:21:49;12.43;;;5.88;;
65275;SDS011;51875;49.994;14.052;2023-02-28T05:23:08;12.80;;;6.13;;
65275;SDS011;51875;49.994;14.052;2023-02-28T05:24:26;11.93;;;5.70;;
65275;SDS011;51875;49.994;14.052;2023-02-28T05:25:41;11.18;;;5.90;;
65275;SDS011;51875;49.994;14.052;2023-02-28T05:26:57;12.63;;;5.60;;
65275;SDS011;51875;49.994;14.052;2023-02-28T05:28:13;12.27;;;5.78;;
65275;SDS011;51875;49.994;14.052;2023-02-28T05:29:29;10.02;;;5.32;;
65275;SDS011;51875;49.994;14.052;2023-02-28T05:30:45;12.45;;;5.53;;
65275;SDS011;51875;49.994;14.052;2023-02-28T05:32:00;12.57;;;5.60;;
65275;SDS011;51875;49.994;14.052;2023-02-28T05:33:16;11.93;;;5.60;;
65275;SDS011;51875;49.994;14.052;2023-02-28T05:34:32;10.85;;;5.82;;
65275;SDS011;51875;49.994;14.052;2023-02-28T05:35:47;13.02;;;5.38;;
65275;SDS011;51875;49.994;14.052;2023-02-28T05:37:03;12.55;;;5.97;;
65275;SDS011;51875;49.994;14.052;2023-02-28T05:38:19;10.43;;;5.00;;
65275;SDS011;51875;49.994;14.052;2023-02-28T05:39:35;12.27;;;6.18;;
65275;SDS011;51875;49.994;14.052;2023-02-28T05:40:51;11.88;;;5.97;;
65275;SDS011;51875;49.994;14.052;2023-02-28T05:42:08;12.35;;;5.90;;
65275;SDS011;51875;49.994;14.052;2023-02-28T05:43:24;10.25;;;4.97;;
65275;SDS011;51875;49.994;14.052;2023-02-28T05:44:40;11.55;;;5.80;;
65275;SDS011;51875;49.994;14.052;2023-02-28T05:45:57;13.32;;;5.55;;
65275;SDS011;51875;49.994;14.052;2023-02-28T05:47:12;15.07;;;5.70;;
65275;SDS011;51875;49.994;14.052;2023-02-28T05:48:32;16.13;;;5.85;;
65275;SDS011;51875;49.994;14.052;2023-02-28T05:49:49;12.18;;;5.57;;
65275;SDS011;51875;49.994;14.052;2023-02-28T05:51:06;12.52;;;5.43;;
65275;SDS011;51875;49.994;14.052;2023-02-28T05:52:22;15.30;;;6.20;;
65275;SDS011;51875;49.994;14.052;2023-02-28T05:53:38;15.13;;;5.72;;
65275;SDS011;51875;49.994;14.052;2023-02-28T05:54:53;12.88;;;6.22;;
65275;SDS011;51875;49.994;14.052;2023-02-28T05:56:09;10.20;;;5.50;;
65275;SDS011;51875;49.994;14.052;2023-02-28T05:57:25;13.00;;;5.28;;
65275;SDS011;51875;49.994;14.052;2023-02-28T05:58:40;11.13;;;5.53;;
65275;SDS011;51875;49.994;14.052;2023-02-28T05:59:56;11.60;;;5.35;;
65275;SDS011;51875;49.994;14.052;2023-02-28T06:01:22;12.02;;;6.03;;
65275;SDS011;51875;49.994;14.052;2023-02-28T06:02:48;13.07;;;5.35;;
65275;SDS011;51875;49.994;14.052;2023-02-28T06:04:05;13.45;;;6.20;;
65275;SDS011;51875;49.994;14.052;2023-02-28T06:05:23;16.10;;;6.25;;
65275;SDS011;51875;49.994;14.052;2023-02-28T06:06:39;13.95;;;6.20;;
65275;SDS011;51875;49.994;14.052;2023-02-28T06:07:55;16.08;;;6.90;;
65275;SDS011;51875;49.994;14.052;2023-02-28T06:09:11;14.52;;;5.57;;
65275;SDS011;51875;49.994;14.052;2023-02-28T06:10:26;13.27;;;5.97;;
65275;SDS011;51875;49.994;14.052;2023-02-28T06:11:42;13.95;;;6.28;;
65275;SDS011;51875;49.994;14.052;2023-02-28T06:13:01;14.43;;;6.45;;
65275;SDS011;51875;49.994;14.052;2023-02-28T06:14:18;12.98;;;5.35;;
65275;SDS011;51875;49.994;14.052;2023-02-28T06:15:34;16.63;;;6.53;;
65275;SDS011;51875;49.994;14.052;2023-02-28T06:16:50;12.35;;;5.93;;
65275;SDS011;51875;49.994;14.052;2023-02-28T06:18:06;14.05;;;6.55;;
65275;SDS011;51875;49.994;14.052;2023-02-28T06:19:21;15.90;;;5.72;;
65275;SDS011;51875;49.994;14.052;2023-02-28T06:20:37;16.17;;;6.30;;
65275;SDS011;51875;49.994;14.052;2023-02-28T06:21:54;13.95;;;6.35;;
65275;SDS011;51875;49.994;14.052;2023-02-28T06:23:11;14.80;;;6.10;;
65275;SDS011;51875;49.994;14.052;2023-02-28T06:24:27;12.35;;;6.25;;
65275;SDS011;51875;49.994;14.052;2023-02-28T06:25:46;14.98;;;6.15;;
65275;SDS011;51875;49.994;14.052;2023-02-28T06:27:02;13.32;;;6.53;;
65275;SDS011;51875;49.994;14.052;2023-02-28T06:28:20;13.85;;;6.13;;
65275;SDS011;51875;49.994;14.052;2023-02-28T06:29:35;13.85;;;6.53;;
65275;SDS011;51875;49.994;14.052;2023-02-28T06:30:51;12.05;;;6.07;;
65275;SDS011;51875;49.994;14.052;2023-02-28T06:32:07;12.85;;;6.45;;
65275;SDS011;51875;49.994;14.052;2023-02-28T06:33:23;21.15;;;7.18;;
65275;SDS011;51875;49.994;14.052;2023-02-28T06:34:39;16.17;;;6.80;;
65275;SDS011;51875;49.994;14.052;2023-02-28T06:35:54;18.75;;;6.75;;
65275;SDS011;51875;49.994;14.052;2023-02-28T06:37:10;15.25;;;6.80;;
65275;SDS011;51875;49.994;14.052;2023-02-28T06:38:26;15.20;;;6.53;;
65275;SDS011;51875;49.994;14.052;2023-02-28T06:39:41;15.23;;;6.32;;
65275;SDS011;51875;49.994;14.052;2023-02-28T06:40:58;12.55;;;6.20;;
65275;SDS011;51875;49.994;14.052;2023-02-28T06:42:15;16.02;;;6.28;;
65275;SDS011;51875;49.994;14.052;2023-02-28T06:43:32;14.55;;;6.80;;
65275;SDS011;51875;49.994;14.052;2023-02-28T06:44:51;12.48;;;5.82;;
65275;SDS011;51875;49.994;14.052;2023-02-28T06:46:07;15.38;;;6.22;;
65275;SDS011;51875;49.994;14.052;2023-02-28T06:47:25;15.88;;;6.40;;
65275;SDS011;51875;49.994;14.052;2023-02-28T06:48:43;13.32;;;6.43;;
65275;SDS011;51875;49.994;14.052;2023-02-28T06:49:59;16.90;;;6.30;;
65275;SDS011;51875;49.994;14.052;2023-02-28T06:51:17;13.05;;;6.53;;
65275;SDS011;51875;49.994;14.052;2023-02-28T06:52:39;12.57;;;6.22;;
65275;SDS011;51875;49.994;14.052;2023-02-28T06:53:54;13.80;;;5.85;;
65275;SDS011;51875;49.994;14.052;2023-02-28T06:55:11;14.38;;;6.63;;
65275;SDS011;51875;49.994;14.052;2023-02-28T06:56:26;17.58;;;7.85;;
65275;SDS011;51875;49.994;14.052;2023-02-28T06:57:42;15.98;;;6.75;;
65275;SDS011;51875;49.994;14.052;2023-02-28T06:58:58;11.68;;;6.15;;
65275;SDS011;51875;49.994;14.052;2023-02-28T07:00:13;15.43;;;6.25;;
65275;SDS011;51875;49.994;14.052;2023-02-28T07:01:29;11.77;;;5.60;;
65275;SDS011;51875;49.994;14.052;2023-02-28T07:02:47;12.85;;;6.25;;
65275;SDS011;51875;49.994;14.052;2023-02-28T07:04:02;15.93;;;6.97;;
65275;SDS011;51875;49.994;14.052;2023-02-28T07:05:20;14.88;;;6.45;;
65275;SDS011;51875;49.994;14.052;2023-02-28T07:06:36;17.23;;;6.55;;
65275;SDS011;51875;49.994;14.052;2023-02-28T07:07:52;15.20;;;6.78;;
65275;SDS011;51875;49.994;14.052;2023-02-28T07:09:07;12.77;;;5.70;;
65275;SDS011;51875;49.994;14.052;2023-02-28T07:10:23;14.23;;;5.85;;
65275;SDS011;51875;49.994;14.052;2023-02-28T07:11:39;12.57;;;6.18;;
65275;SDS011;51875;49.994;14.052;2023-02-28T07:12:55;16.65;;;7.20;;
65275;SDS011;51875;49.994;14.052;2023-02-28T07:14:11;15.30;;;6.45;;
65275;SDS011;51875;49.994;14.052;2023-02-28T07:15:27;14.27;;;6.78;;
65275;SDS011;51875;49.994;14.052;2023-02-28T07:16:42;14.35;;;6.53;;
65275;SDS011;51875;49.994;14.052;2023-02-28T07:18:00;15.27;;;6.03;;
65275;SDS011;51875;49.994;14.052;2023-02-28T07:19:16;13.90;;;6.40;;
65275;SDS011;51875;49.994;14.052;2023-02-28T07:20:31;16.20;;;7.28;;
65275;SDS011;51875;49.994;14.052;2023-02-28T07:21:47;14.43;;;6.45;;
65275;SDS011;51875;49.994;14.052;2023-02-28T07:23:03;13.85;;;6.32;;
65275;SDS011;51875;49.994;14.052;2023-02-28T07:24:18;15.63;;;6.53;;
65275;SDS011;51875;49.994;14.052;2023-02-28T07:25:34;14.02;;;6.13;;
65275;SDS011;51875;49.994;14.052;2023-02-28T07:26:49;12.57;;;6.35;;
65275;SDS011;51875;49.994;14.052;2023-02-28T07:28:05;16.63;;;7.07;;
65275;SDS011;51875;49.994;14.052;2023-02-28T07:29:21;16.25;;;6.82;;
65275;SDS011;51875;49.994;14.052;2023-02-28T07:30:40;13.27;;;7.00;;
65275;SDS011;51875;49.994;14.052;2023-02-28T07:32:05;14.40;;;6.32;;
65275;SDS011;51875;49.994;14.052;2023-02-28T07:33:20;14.30;;;6.53;;
65275;SDS011;51875;49.994;14.052;2023-02-28T07:34:36;12.27;;;6.18;;
65275;SDS011;51875;49.994;14.052;2023-02-28T07:35:52;21.60;;;8.90;;
65275;SDS011;51875;49.994;14.052;2023-02-28T07:37:14;15.70;;;7.30;;
65275;SDS011;51875;49.994;14.052;2023-02-28T07:38:30;18.83;;;8.35;;
65275;SDS011;51875;49.994;14.052;2023-02-28T07:39:48;14.45;;;7.22;;
65275;SDS011;51875;49.994;14.052;2023-02-28T07:41:04;27.27;;;7.38;;
65275;SDS011;51875;49.994;14.052;2023-02-28T07:42:19;17.60;;;8.27;;
65275;SDS011;51875;49.994;14.052;2023-02-28T07:43:36;17.17;;;8.13;;
65275;SDS011;51875;49.994;14.052;2023-02-28T07:44:52;16.65;;;7.35;;
65275;SDS011;51875;49.994;14.052;2023-02-28T07:46:09;14.63;;;6.82;;
65275;SDS011;51875;49.994;14.052;2023-02-28T07:47:28;14.98;;;7.07;;
65275;SDS011;51875;49.994;14.052;2023-02-28T07:48:45;14.07;;;6.90;;
65275;SDS011;51875;49.994;14.052;2023-02-28T07:50:00;16.40;;;7.05;;
65275;SDS011;51875;49.994;14.052;2023-02-28T07:51:16;17.42;;;6.75;;
65275;SDS011;51875;49.994;14.052;2023-02-28T07:52:32;14.02;;;6.68;;
65275;SDS011;51875;49.994;14.052;2023-02-28T07:53:48;13.68;;;6.53;;
65275;SDS011;51875;49.994;14.052;2023-02-28T07:55:04;14.23;;;6.57;;
65275;SDS011;51875;49.994;14.052;2023-02-28T07:56:21;15.40;;;6.90;;
65275;SDS011;51875;49.994;14.052;2023-02-28T07:57:37;16.55;;;8.02;;
65275;SDS011;51875;49.994;14.052;2023-02-28T07:58:53;14.38;;;7.13;;
65275;SDS011;51875;49.994;14.052;2023-02-28T08:00:09;14.63;;;6.60;;
65275;SDS011;51875;49.994;14.052;2023-02-28T08:01:25;14.07;;;6.88;;
65275;SDS011;51875;49.994;14.052;2023-02-28T08:02:41;16.17;;;7.70;;
65275;SDS011;51875;49.994;14.052;2023-02-28T08:03:57;13.68;;;6.40;;